Agana, Guam
Current Conditions -  °F | °C
As of 5:54 AM on Thursday 27 Nov 2014 (Local Time) from PGUM Reporting Station
Clear Clear  
Wind Chill: 81°   Ceiling: Unl
Heat Index: 86°   Visibility: 10mi
Dew Point: 74°   Wind: 13mph
Humidity: 79%   Direction: 40°NE
Pressure: 29.86"   Gusts: NA
Location:  13.4751°N, 144.7484°E
Report Text: PGUM 261954Z 04011KT 10SM CLR 27/23 A2986 RMK AO2 SLP104 T02720233
Loading
Personal Weather Stations






























Interactive Weather Map New forecast layout! Learn more

10-Day Weather Forecast

Advertisements
Track Severe Weather on mobile